Battleground, Washington
Current Conditions -  °F | °C
As of 6:53 AM on Tuesday 21 Oct 2014 (Local Time) from KVUO Reporting Station
Broken Clouds Broken Clouds  
Wind Chill: 55°   Ceiling: 11000
Heat Index: 55°   Visibility: 10mi
Dew Point: 49°   Wind: 5mph
Humidity: 80%   Direction: NA
Pressure: 29.94"   Gusts: NA
Location:  45.8003°N, 122.498°W
Report Text: KVUO 211353Z AUTO VRB04KT 10SM BKN110 13/09 A2994 RMK AO2 SLP139 T01280094
Loading
Personal Weather Stations






























Interactive Weather Map
Tropical Storm Tracking
New forecast layout! Learn more

10-Day Weather Forecast

Advertisements
Track Severe Weather on mobile